San Gregorio, California
Current Conditions -  °F | °C
As of 5:55 AM on Monday 24 Nov 2014 (Local Time) from KHAF Reporting Station
Clear Clear  
Wind Chill: 55°   Ceiling: Unl
Heat Index: 55°   Visibility: 10mi
Dew Point: 37°   Wind: 10mph
Humidity: 51%   Direction: 70°ENE
Pressure: 30.34"   Gusts: NA
Location:  37.33°N, 122.39°W
Report Text: KHAF 241355Z AUTO 07009KT 10SM CLR 13/03 A3034 RMK AO2
Loading
Personal Weather Stations






























Interactive Weather Map New forecast layout! Learn more

10-Day Weather Forecast

Advertisements
Track Severe Weather on mobile